createdAt,value
2018-03-22T00:01:51.531Z,-1.10
2018-03-22T00:04:19.084Z,-1.20
2018-03-22T00:06:46.646Z,-1.10
2018-03-22T00:09:14.187Z,-1.10
2018-03-22T00:11:41.824Z,-1.10
2018-03-22T00:14:09.402Z,-1.20
2018-03-22T00:16:37.011Z,-1.20
2018-03-22T00:19:04.578Z,-1.20
2018-03-22T00:21:32.128Z,-1.20
2018-03-22T00:24:00.824Z,-1.30
2018-03-22T00:26:28.378Z,-1.30
2018-03-22T00:28:56.677Z,-1.40
2018-03-22T00:31:24.206Z,-1.40
2018-03-22T00:33:51.788Z,-1.40
2018-03-22T00:36:20.111Z,-1.50
2018-03-22T00:38:47.663Z,-1.50
2018-03-22T00:41:15.227Z,-1.50
2018-03-22T00:43:42.874Z,-1.50
2018-03-22T00:46:11.182Z,-1.50
2018-03-22T00:48:38.753Z,-1.60
2018-03-22T00:51:06.299Z,-1.60
2018-03-22T00:53:33.850Z,-1.60
2018-03-22T00:56:02.157Z,-1.60
2018-03-22T00:58:29.683Z,-1.60
2018-03-22T01:00:57.255Z,-1.60
2018-03-22T01:03:24.822Z,-1.60
2018-03-22T01:05:52.338Z,-1.60
2018-03-22T01:08:19.884Z,-1.50
2018-03-22T01:10:47.533Z,-1.50
2018-03-22T01:13:15.906Z,-1.60
2018-03-22T01:15:43.448Z,-1.60
2018-03-22T01:18:10.987Z,-1.60
2018-03-22T01:20:38.564Z,-1.60
2018-03-22T01:23:06.113Z,-1.60
2018-03-22T01:25:33.663Z,-1.60
2018-03-22T01:28:01.177Z,-1.70
2018-03-22T01:30:36.528Z,-1.70
2018-03-22T01:33:04.073Z,-1.70
2018-03-22T01:35:31.615Z,-1.70
2018-03-22T01:37:59.296Z,-1.70
2018-03-22T01:40:26.871Z,-1.80
2018-03-22T01:42:54.631Z,-1.80
2018-03-22T01:45:22.214Z,-1.80
2018-03-22T01:47:49.763Z,-1.80
2018-03-22T01:50:17.310Z,-1.80
2018-03-22T01:52:56.580Z,-1.80
2018-03-22T01:55:24.161Z,-1.90
2018-03-22T01:57:51.751Z,-1.80
2018-03-22T02:00:20.084Z,-1.80
2018-03-22T02:02:47.613Z,-1.80
2018-03-22T02:05:15.331Z,-1.80
2018-03-22T02:07:42.867Z,-1.80
2018-03-22T02:10:10.484Z,-1.80
2018-03-22T02:12:38.016Z,-1.80
2018-03-22T02:15:05.555Z,-1.80
2018-03-22T02:17:33.156Z,-1.90
2018-03-22T02:20:01.471Z,-1.90
2018-03-22T02:22:29.782Z,-1.90
2018-03-22T02:24:57.357Z,-1.90
2018-03-22T02:27:24.921Z,-1.90
2018-03-22T02:29:52.630Z,-1.90
2018-03-22T02:32:20.326Z,-1.90
2018-03-22T02:34:48.717Z,-1.80
2018-03-22T02:37:17.179Z,-1.80
2018-03-22T02:39:44.770Z,-1.80
2018-03-22T02:42:12.332Z,-1.80
2018-03-22T02:44:40.642Z,-1.70
2018-03-22T02:47:08.174Z,-1.70
2018-03-22T02:49:36.571Z,-1.70
2018-03-22T02:52:04.447Z,-1.70
2018-03-22T02:54:32.043Z,-1.70
2018-03-22T02:56:59.579Z,-1.60
2018-03-22T02:59:27.108Z,-1.60
2018-03-22T03:01:54.768Z,-1.50
2018-03-22T03:04:22.358Z,-1.50
2018-03-22T03:06:50.675Z,-1.50
2018-03-22T03:09:18.242Z,-1.50
2018-03-22T03:11:45.816Z,-1.50
2018-03-22T03:14:13.858Z,-1.50
2018-03-22T03:16:42.158Z,-1.50
2018-03-22T03:19:09.697Z,-1.60
2018-03-22T03:21:38.096Z,-1.70
2018-03-22T03:24:05.640Z,-1.70
2018-03-22T03:26:33.954Z,-1.90
2018-03-22T03:29:01.524Z,-1.90
2018-03-22T03:31:29.059Z,-1.90
2018-03-22T03:33:57.353Z,-2.00
2018-03-22T03:36:25.668Z,-2.00
2018-03-22T03:38:53.236Z,-2.00
2018-03-22T03:41:20.844Z,-1.90
2018-03-22T03:43:48.469Z,-1.90
2018-03-22T03:46:16.014Z,-1.70
2018-03-22T03:48:43.544Z,-1.70
2018-03-22T03:51:11.113Z,-1.60
2018-03-22T03:53:38.660Z,-1.50
2018-03-22T03:56:06.195Z,-1.40
2018-03-22T03:58:33.731Z,-1.50
2018-03-22T04:01:01.271Z,-1.40
2018-03-22T04:03:28.837Z,-1.40
2018-03-22T04:05:56.381Z,-1.40
2018-03-22T04:08:23.918Z,-1.40
2018-03-22T04:10:51.466Z,-1.40
2018-03-22T04:13:18.997Z,-1.40
2018-03-22T04:15:46.638Z,-1.40
2018-03-22T04:18:14.182Z,-1.40
2018-03-22T04:20:41.733Z,-1.50
2018-03-22T04:23:09.300Z,-1.50
2018-03-22T04:25:36.862Z,-1.50
2018-03-22T04:28:04.406Z,-1.40
2018-03-22T04:30:32.729Z,-1.40
2018-03-22T04:33:00.270Z,-1.40
2018-03-22T04:35:27.844Z,-1.30
2018-03-22T04:37:55.372Z,-1.30
2018-03-22T04:40:22.938Z,-1.30
2018-03-22T04:42:50.581Z,-1.30
2018-03-22T04:45:18.120Z,-1.30
2018-03-22T04:47:45.664Z,-1.30
2018-03-22T04:50:13.203Z,-1.20
2018-03-22T04:52:41.564Z,-1.20
2018-03-22T04:55:09.145Z,-1.20
2018-03-22T04:57:36.684Z,-1.20
2018-03-22T05:00:04.215Z,-1.20
2018-03-22T05:02:31.783Z,-1.20
2018-03-22T05:04:59.403Z,-1.20
2018-03-22T05:07:26.938Z,-1.20
2018-03-22T05:09:54.496Z,-1.10
2018-03-22T05:12:22.039Z,-1.10
2018-03-22T05:14:49.547Z,-1.00
2018-03-22T05:17:17.108Z,-1.00
2018-03-22T05:19:44.651Z,-0.90
2018-03-22T05:22:12.192Z,-0.90
2018-03-22T05:24:39.856Z,-0.90
2018-03-22T05:27:07.411Z,-0.80
2018-03-22T05:29:36.102Z,-0.80
2018-03-22T05:32:04.430Z,-0.80
2018-03-22T05:34:31.977Z,-0.80
2018-03-22T05:36:59.693Z,-0.70
2018-03-22T05:39:27.262Z,-0.70
2018-03-22T05:41:54.845Z,-0.60
2018-03-22T05:44:22.369Z,-0.60
2018-03-22T05:46:49.918Z,-0.60
2018-03-22T05:49:17.493Z,-0.60
2018-03-22T05:51:45.866Z,-0.50
2018-03-22T05:54:13.782Z,-0.50
2018-03-22T05:56:41.307Z,-0.40
2018-03-22T05:59:08.853Z,-0.40
2018-03-22T06:01:36.390Z,-0.30
2018-03-22T06:04:03.984Z,-0.30
2018-03-22T06:06:31.533Z,-0.20
2018-03-22T06:08:59.848Z,-0.10
2018-03-22T06:11:27.384Z,-0.10
2018-03-22T06:13:55.706Z,0.00
2018-03-22T06:16:23.340Z,0.00
2018-03-22T06:18:51.272Z,0.10
2018-03-22T06:21:18.833Z,0.20
2018-03-22T06:23:46.369Z,0.20
2018-03-22T06:26:13.958Z,0.20
2018-03-22T06:28:41.555Z,0.20
2018-03-22T06:31:09.119Z,0.20
2018-03-22T06:33:36.662Z,0.30
2018-03-22T06:36:04.337Z,0.30
2018-03-22T06:38:31.896Z,0.40
2018-03-22T06:40:59.434Z,0.50
2018-03-22T06:43:27.101Z,0.60
2018-03-22T06:45:54.637Z,0.70
2018-03-22T06:48:22.940Z,0.90
2018-03-22T06:50:50.541Z,0.90
2018-03-22T06:53:18.094Z,1.00
2018-03-22T06:55:45.653Z,1.00
2018-03-22T06:58:13.206Z,1.10
2018-03-22T07:00:40.743Z,1.20
2018-03-22T07:03:08.289Z,1.40
2018-03-22T07:05:35.837Z,1.50
2018-03-22T07:08:03.390Z,1.60
2018-03-22T07:10:31.333Z,1.60
2018-03-22T07:12:58.957Z,1.70
2018-03-22T07:15:26.496Z,1.70
2018-03-22T07:17:54.034Z,1.80
2018-03-22T07:20:21.589Z,2.00
2018-03-22T07:22:49.108Z,2.00
2018-03-22T07:25:16.668Z,2.20
2018-03-22T07:27:44.201Z,2.40
2018-03-22T07:30:11.731Z,2.50
2018-03-22T07:32:40.069Z,2.60
2018-03-22T07:35:07.601Z,2.60
2018-03-22T07:37:35.132Z,2.70
2018-03-22T07:40:02.640Z,2.70
2018-03-22T07:42:30.185Z,2.70
2018-03-22T07:44:58.850Z,2.80
2018-03-22T07:47:26.384Z,2.70
2018-03-22T07:49:53.939Z,2.70
2018-03-22T07:52:21.505Z,2.80
2018-03-22T07:54:49.025Z,2.80
2018-03-22T07:57:17.342Z,2.90
2018-03-22T07:59:44.861Z,2.90
2018-03-22T08:02:12.475Z,3.00
2018-03-22T08:04:39.990Z,3.10
2018-03-22T08:07:07.569Z,3.20
2018-03-22T08:09:35.890Z,3.30
2018-03-22T08:12:03.500Z,3.30
2018-03-22T08:14:31.031Z,3.30
2018-03-22T08:16:58.590Z,3.30
2018-03-22T08:19:26.258Z,3.40
2018-03-22T08:21:53.820Z,3.50
2018-03-22T08:24:21.355Z,3.50
2018-03-22T08:26:49.654Z,3.50
2018-03-22T08:29:17.223Z,3.50
2018-03-22T08:31:44.748Z,3.60
2018-03-22T08:34:12.304Z,3.70
2018-03-22T08:36:39.865Z,3.80
2018-03-22T08:39:07.459Z,3.80
2018-03-22T08:41:35.774Z,3.70
2018-03-22T08:44:03.306Z,3.70
2018-03-22T08:46:31.637Z,3.60
2018-03-22T08:48:59.175Z,3.60
2018-03-22T08:51:26.769Z,3.60
2018-03-22T08:53:54.319Z,3.50
2018-03-22T08:56:21.900Z,3.50
2018-03-22T08:58:50.220Z,3.60
2018-03-22T09:01:17.784Z,3.60
2018-03-22T09:03:45.318Z,3.70
2018-03-22T09:06:12.849Z,3.80
2018-03-22T09:08:40.411Z,4.00
2018-03-22T09:11:07.992Z,4.20
2018-03-22T09:13:35.551Z,4.30
2018-03-22T09:16:03.259Z,4.50
2018-03-22T09:18:30.809Z,4.60
2018-03-22T09:20:58.412Z,4.60
2018-03-22T09:23:26.074Z,4.50
2018-03-22T09:25:53.617Z,4.40
2018-03-22T09:28:21.202Z,4.20
2018-03-22T09:30:48.821Z,4.10
2018-03-22T09:33:16.365Z,4.00
2018-03-22T09:35:44.705Z,3.90
2018-03-22T09:38:12.344Z,3.90
2018-03-22T09:40:39.923Z,3.90
2018-03-22T09:43:07.464Z,4.00
2018-03-22T09:45:34.999Z,4.00
2018-03-22T09:48:03.308Z,4.00
2018-03-22T09:50:30.849Z,3.90
2018-03-22T09:52:59.154Z,3.70
2018-03-22T09:55:26.722Z,3.70
2018-03-22T09:57:54.268Z,3.60
2018-03-22T10:00:22.587Z,3.40
2018-03-22T10:02:50.195Z,3.40
2018-03-22T10:05:17.658Z,3.30
2018-03-22T10:07:45.190Z,3.10
2018-03-22T10:10:12.731Z,3.00
2018-03-22T10:12:40.608Z,2.90
2018-03-22T10:15:08.137Z,2.80
2018-03-22T10:17:35.767Z,2.80
2018-03-22T10:20:04.122Z,2.70
2018-03-22T10:22:31.661Z,2.70
2018-03-22T10:25:00.147Z,2.70
2018-03-22T10:27:28.458Z,2.60
2018-03-22T10:29:55.996Z,2.60
2018-03-22T10:32:24.283Z,2.60
2018-03-22T10:34:52.606Z,2.60
2018-03-22T10:37:20.184Z,2.60
2018-03-22T10:39:47.709Z,2.70
2018-03-22T10:42:15.261Z,2.70
2018-03-22T10:44:43.562Z,3.00
2018-03-22T10:47:11.101Z,3.00
2018-03-22T10:49:38.647Z,3.20
2018-03-22T10:52:06.256Z,3.30
2018-03-22T10:54:34.563Z,3.30
2018-03-22T10:57:02.099Z,3.30
2018-03-22T10:59:30.401Z,3.30
2018-03-22T11:02:00.781Z,3.30
2018-03-22T11:04:28.326Z,3.30
2018-03-22T11:06:55.864Z,3.40
2018-03-22T11:09:23.398Z,3.40
2018-03-22T11:11:51.702Z,3.40
2018-03-22T11:14:19.263Z,3.40
2018-03-22T11:16:46.879Z,3.40
2018-03-22T11:19:14.424Z,3.40
2018-03-22T11:21:41.954Z,3.40
2018-03-22T11:24:10.269Z,3.20
2018-03-22T11:26:37.849Z,3.20
2018-03-22T11:29:05.584Z,3.20
2018-03-22T11:31:33.122Z,3.20
2018-03-22T11:34:01.435Z,3.30
2018-03-22T11:36:28.968Z,3.30
2018-03-22T11:38:57.310Z,3.50
2018-03-22T11:41:24.851Z,3.40
2018-03-22T11:43:52.388Z,3.50
2018-03-22T11:46:20.710Z,3.50
2018-03-22T11:48:48.234Z,3.50
2018-03-22T11:51:16.585Z,3.60
2018-03-22T11:53:44.181Z,3.60
2018-03-22T11:56:11.659Z,3.60
2018-03-22T11:58:39.212Z,3.50
2018-03-22T12:01:07.498Z,3.50
2018-03-22T12:03:35.857Z,3.50
2018-03-22T12:06:03.375Z,3.40
2018-03-22T12:08:30.915Z,3.60
2018-03-22T12:10:59.234Z,3.40
2018-03-22T12:13:26.770Z,3.40
2018-03-22T12:15:54.349Z,3.40
2018-03-22T12:18:21.898Z,3.40
2018-03-22T12:20:50.198Z,3.40
2018-03-22T12:23:17.828Z,3.30
2018-03-22T12:25:46.182Z,3.30
2018-03-22T12:28:14.548Z,3.40
2018-03-22T12:30:42.144Z,3.40
2018-03-22T12:33:09.686Z,3.50
2018-03-22T12:35:37.241Z,3.50
2018-03-22T12:38:04.778Z,3.60
2018-03-22T12:40:33.111Z,3.70
2018-03-22T12:43:00.643Z,3.70
2018-03-22T12:45:28.298Z,3.80
2018-03-22T12:47:55.860Z,3.70
2018-03-22T12:50:24.307Z,3.50
2018-03-22T12:52:51.892Z,3.50
2018-03-22T12:55:19.547Z,3.50
2018-03-22T12:57:47.078Z,3.40
2018-03-22T13:00:14.642Z,3.40
2018-03-22T13:02:42.191Z,3.40
2018-03-22T13:05:09.737Z,3.40
2018-03-22T13:07:38.054Z,3.40
2018-03-22T13:10:05.582Z,3.40
2018-03-22T13:12:33.917Z,3.40
2018-03-22T13:15:01.454Z,3.30
2018-03-22T13:17:29.035Z,3.40
2018-03-22T13:19:56.659Z,3.40
2018-03-22T13:22:27.915Z,3.30
2018-03-22T13:24:56.217Z,3.40
2018-03-22T13:27:24.207Z,3.40
2018-03-22T13:29:52.698Z,3.40
2018-03-22T13:32:20.399Z,3.40
2018-03-22T13:34:47.949Z,3.40
2018-03-22T13:37:15.490Z,3.30
2018-03-22T13:39:43.281Z,3.30
2018-03-22T13:42:10.897Z,3.30
2018-03-22T13:44:39.201Z,3.30
2018-03-22T13:47:06.774Z,3.30
2018-03-22T13:49:34.409Z,3.40
2018-03-22T13:52:02.715Z,3.50
2018-03-22T13:54:30.350Z,3.40
2018-03-22T13:56:58.781Z,3.50
2018-03-22T13:59:26.474Z,3.50
2018-03-22T14:01:54.006Z,3.40
2018-03-22T14:04:21.576Z,3.40
2018-03-22T14:06:49.185Z,3.30
2018-03-22T14:09:16.776Z,3.30
2018-03-22T14:11:44.391Z,3.30
2018-03-22T14:14:11.922Z,3.30
2018-03-22T14:16:39.512Z,3.40
2018-03-22T14:19:07.073Z,3.40
2018-03-22T14:21:34.623Z,3.40
2018-03-22T14:24:02.463Z,3.40
2018-03-22T14:26:30.023Z,3.40
2018-03-22T14:28:57.582Z,3.40
2018-03-22T14:31:25.139Z,3.40
2018-03-22T14:33:52.700Z,3.40
2018-03-22T14:36:20.247Z,3.40
2018-03-22T14:38:48.671Z,3.40
2018-03-22T14:41:16.235Z,3.40
2018-03-22T14:43:43.946Z,3.40
2018-03-22T14:46:11.538Z,3.30
2018-03-22T14:48:39.080Z,3.30
2018-03-22T14:51:06.615Z,3.20
2018-03-22T14:53:35.078Z,3.20
2018-03-22T14:56:02.659Z,3.20
2018-03-22T14:58:30.208Z,3.10
2018-03-22T15:00:57.753Z,3.20
2018-03-22T15:03:25.314Z,3.10
2018-03-22T15:05:52.925Z,3.40
2018-03-22T15:08:21.281Z,3.10
2018-03-22T15:10:48.821Z,3.10
2018-03-22T15:13:16.374Z,3.10
2018-03-22T15:15:43.909Z,3.10
2018-03-22T15:18:12.203Z,3.10
2018-03-22T15:20:39.777Z,3.10
2018-03-22T15:23:07.317Z,3.10
2018-03-22T15:25:34.961Z,3.10
2018-03-22T15:28:02.479Z,3.10
2018-03-22T15:30:30.031Z,3.20
2018-03-22T15:32:58.366Z,3.10
2018-03-22T15:35:25.911Z,3.10
2018-03-22T15:37:53.461Z,3.10
2018-03-22T15:40:20.998Z,3.10
2018-03-22T15:42:49.393Z,3.10
2018-03-22T15:45:17.891Z,3.10
2018-03-22T15:47:45.820Z,3.10
2018-03-22T15:50:13.330Z,3.10
2018-03-22T15:52:40.983Z,3.10
2018-03-22T15:55:09.304Z,3.00
2018-03-22T15:57:37.177Z,3.00
2018-03-22T16:00:04.744Z,3.00
2018-03-22T16:02:33.012Z,3.00
2018-03-22T16:05:00.780Z,2.90
2018-03-22T16:07:28.320Z,3.00
2018-03-22T16:09:56.640Z,3.00
2018-03-22T16:12:24.224Z,3.00
2018-03-22T16:14:51.784Z,3.00
2018-03-22T16:17:19.321Z,3.00
2018-03-22T16:19:46.851Z,3.00
2018-03-22T16:22:14.425Z,3.00
2018-03-22T16:24:42.729Z,3.00
2018-03-22T16:27:10.308Z,2.90
2018-03-22T16:29:37.861Z,2.90
2018-03-22T16:32:05.399Z,2.90
2018-03-22T16:34:33.928Z,2.90
2018-03-22T16:37:01.516Z,2.80
2018-03-22T16:39:29.057Z,2.90
2018-03-22T16:41:57.593Z,2.90
2018-03-22T16:44:25.153Z,2.90
2018-03-22T16:46:52.740Z,2.80
2018-03-22T16:49:21.072Z,2.80
2018-03-22T16:51:48.661Z,2.80
2018-03-22T16:54:16.194Z,2.80
2018-03-22T16:56:43.768Z,2.90
2018-03-22T16:59:11.369Z,2.80
2018-03-22T17:01:38.950Z,2.80
2018-03-22T17:04:06.509Z,2.80
2018-03-22T17:06:34.071Z,2.80
2018-03-22T17:09:01.705Z,2.80
2018-03-22T17:11:29.294Z,2.80
2018-03-22T17:13:56.844Z,2.80
2018-03-22T17:16:24.447Z,2.80
2018-03-22T17:18:52.768Z,2.90
2018-03-22T17:21:20.319Z,2.80
2018-03-22T17:23:47.902Z,2.90
2018-03-22T17:26:16.227Z,2.80
2018-03-22T17:28:44.544Z,2.80
2018-03-22T17:31:12.099Z,2.80
2018-03-22T17:33:40.418Z,2.80
2018-03-22T17:36:08.010Z,2.80
2018-03-22T17:38:35.583Z,2.80
2018-03-22T17:41:03.111Z,2.80
2018-03-22T17:43:30.675Z,2.80
2018-03-22T17:45:58.245Z,2.70
2018-03-22T17:48:25.833Z,2.70
2018-03-22T17:50:53.374Z,2.70
2018-03-22T17:53:20.945Z,2.70
2018-03-22T17:55:48.512Z,2.70
2018-03-22T17:58:16.068Z,2.70
2018-03-22T18:00:43.630Z,2.70
2018-03-22T18:03:11.195Z,2.70
2018-03-22T18:05:38.769Z,2.70
2018-03-22T18:08:06.321Z,2.70
2018-03-22T18:10:33.892Z,2.60
2018-03-22T18:13:01.470Z,2.70
2018-03-22T18:15:29.043Z,2.60
2018-03-22T18:17:56.607Z,2.60
2018-03-22T18:20:24.928Z,2.70
2018-03-22T18:22:52.498Z,2.60
2018-03-22T18:25:20.521Z,2.60
2018-03-22T18:27:48.114Z,2.70
2018-03-22T18:30:15.820Z,2.70
2018-03-22T18:32:43.477Z,2.70
2018-03-22T18:35:11.043Z,2.70
2018-03-22T18:37:38.651Z,2.70
2018-03-22T18:40:06.344Z,2.70
2018-03-22T18:42:33.933Z,2.70
2018-03-22T18:45:01.514Z,2.70
2018-03-22T18:47:29.867Z,2.80
2018-03-22T18:49:57.518Z,2.80
2018-03-22T18:52:25.246Z,2.80
2018-03-22T18:54:53.710Z,2.80
2018-03-22T18:57:21.303Z,2.80
2018-03-22T18:59:49.636Z,2.80
2018-03-22T19:02:17.662Z,2.80
2018-03-22T19:04:45.312Z,2.80
2018-03-22T19:07:13.345Z,2.80
2018-03-22T19:09:41.084Z,2.80
2018-03-22T19:12:08.679Z,2.90
2018-03-22T19:14:36.407Z,2.80
2018-03-22T19:17:04.808Z,2.80
2018-03-22T19:19:32.443Z,2.80
2018-03-22T19:22:00.163Z,2.80
2018-03-22T19:24:28.477Z,2.90
2018-03-22T19:26:56.194Z,2.80
2018-03-22T19:29:23.955Z,2.90
2018-03-22T19:31:52.332Z,2.90
2018-03-22T19:34:20.746Z,2.90
2018-03-22T19:36:48.383Z,2.80
2018-03-22T19:39:16.771Z,2.90
2018-03-22T19:41:45.196Z,2.90
2018-03-22T19:44:13.078Z,2.90
2018-03-22T19:46:41.772Z,2.90
2018-03-22T19:49:10.424Z,2.90
2018-03-22T19:51:39.247Z,2.90
2018-03-22T19:54:09.707Z,2.90
2018-03-22T19:56:37.515Z,2.90
2018-03-22T19:59:06.097Z,2.90
2018-03-22T20:01:34.758Z,2.90
2018-03-22T20:04:02.613Z,2.90
2018-03-22T20:06:30.289Z,3.00
2018-03-22T20:08:57.948Z,3.00
2018-03-22T20:11:25.661Z,3.00
2018-03-22T20:13:54.048Z,3.00
2018-03-22T20:16:22.570Z,3.00
2018-03-22T20:18:50.333Z,3.00
2018-03-22T20:21:18.062Z,3.00
2018-03-22T20:23:46.241Z,3.00
2018-03-22T20:26:14.689Z,3.00
2018-03-22T20:28:43.370Z,3.00
2018-03-22T20:31:11.119Z,3.00
2018-03-22T20:33:38.880Z,3.00
2018-03-22T20:36:07.259Z,3.00
2018-03-22T20:38:35.640Z,3.00
2018-03-22T20:41:04.128Z,3.00
2018-03-22T20:43:32.751Z,3.00
2018-03-22T20:46:00.919Z,3.00
2018-03-22T20:48:28.529Z,3.00
2018-03-22T20:50:56.121Z,3.00
2018-03-22T20:53:23.736Z,3.00
2018-03-22T20:55:51.335Z,3.00
2018-03-22T20:58:18.980Z,3.00
2018-03-22T21:00:46.598Z,3.00
2018-03-22T21:03:14.981Z,3.10
2018-03-22T21:05:44.156Z,3.00
2018-03-22T21:08:11.731Z,3.00
2018-03-22T21:10:39.326Z,3.00
2018-03-22T21:13:07.657Z,3.00
2018-03-22T21:15:35.258Z,3.00
2018-03-22T21:18:03.209Z,3.10
2018-03-22T21:20:30.805Z,3.10
2018-03-22T21:22:59.146Z,3.10
2018-03-22T21:25:26.734Z,3.00
2018-03-22T21:27:54.305Z,3.10
2018-03-22T21:30:22.188Z,3.10
2018-03-22T21:32:49.992Z,3.10
2018-03-22T21:35:17.633Z,3.10
2018-03-22T21:37:46.028Z,3.10
2018-03-22T21:40:14.365Z,3.10
2018-03-22T21:42:41.996Z,3.10
2018-03-22T21:45:09.540Z,3.10
2018-03-22T21:47:37.880Z,3.10
2018-03-22T21:50:05.446Z,3.10
2018-03-22T21:52:44.907Z,3.10
2018-03-22T21:55:12.454Z,3.10
2018-03-22T21:57:40.013Z,3.10
2018-03-22T22:00:07.589Z,3.10
2018-03-22T22:02:35.178Z,3.20
2018-03-22T22:05:03.512Z,3.20
2018-03-22T22:07:31.087Z,3.20
2018-03-22T22:09:58.648Z,3.20
2018-03-22T22:12:26.287Z,3.20
2018-03-22T22:14:54.626Z,3.20
2018-03-22T22:17:22.168Z,3.20
2018-03-22T22:19:49.714Z,3.20
2018-03-22T22:22:17.281Z,3.20
2018-03-22T22:24:44.856Z,3.20
2018-03-22T22:27:12.409Z,3.20
2018-03-22T22:29:40.002Z,3.20
2018-03-22T22:32:07.630Z,3.20
2018-03-22T22:34:35.177Z,3.20
2018-03-22T22:37:03.523Z,3.20
2018-03-22T22:39:31.083Z,3.20
2018-03-22T22:41:58.656Z,3.20
2018-03-22T22:44:26.218Z,3.20
2018-03-22T22:46:53.768Z,3.20
2018-03-22T22:49:21.528Z,3.30
2018-03-22T22:51:49.074Z,3.30
2018-03-22T22:54:16.648Z,3.30
2018-03-22T22:56:44.290Z,3.30
2018-03-22T22:59:11.835Z,3.30
2018-03-22T23:01:39.416Z,3.30
2018-03-22T23:04:07.732Z,3.30
2018-03-22T23:06:35.293Z,3.30
2018-03-22T23:09:02.826Z,3.30
2018-03-22T23:11:31.157Z,3.30
2018-03-22T23:13:58.746Z,3.30
2018-03-22T23:16:26.290Z,3.30
2018-03-22T23:18:53.838Z,3.30
2018-03-22T23:21:21.391Z,3.30
2018-03-22T23:23:49.684Z,3.30
2018-03-22T23:26:17.560Z,3.30
2018-03-22T23:28:45.111Z,3.30
2018-03-22T23:31:13.539Z,3.30
2018-03-22T23:33:41.098Z,3.30
2018-03-22T23:36:08.635Z,3.30
2018-03-22T23:38:36.220Z,3.40
2018-03-22T23:41:03.993Z,3.30
2018-03-22T23:43:31.583Z,3.30
2018-03-22T23:45:59.110Z,3.40
2018-03-22T23:48:26.923Z,3.40
2018-03-22T23:50:54.489Z,3.30
2018-03-22T23:53:22.035Z,3.40
2018-03-22T23:55:49.582Z,3.30
2018-03-22T23:58:17.131Z,3.30
